sensor_id;sensor_type;location;lat;lon;timestamp;pressure;altitude;pressure_sealevel;temperature
64960;BMP180;51487;52.266;10.542;2023-01-08T00:01:59;99672.00;;;9.40
64960;BMP180;51487;52.266;10.542;2023-01-08T00:04:25;99676.00;;;9.30
64960;BMP180;51487;52.266;10.542;2023-01-08T00:06:51;99664.00;;;9.40
64960;BMP180;51487;52.266;10.542;2023-01-08T00:09:16;99666.00;;;9.40
64960;BMP180;51487;52.266;10.542;2023-01-08T00:11:42;99661.00;;;9.30
64960;BMP180;51487;52.266;10.542;2023-01-08T00:14:09;99660.00;;;9.30
64960;BMP180;51487;52.266;10.542;2023-01-08T00:16:34;99659.00;;;9.30
64960;BMP180;51487;52.266;10.542;2023-01-08T00:19:00;99653.00;;;9.10
64960;BMP180;51487;52.266;10.542;2023-01-08T00:21:26;99662.00;;;9.10
64960;BMP180;51487;52.266;10.542;2023-01-08T00:23:52;99651.00;;;9.10
64960;BMP180;51487;52.266;10.542;2023-01-08T00:26:18;99650.00;;;9.10
64960;BMP180;51487;52.266;10.542;2023-01-08T00:28:43;99654.00;;;9.10
64960;BMP180;51487;52.266;10.542;2023-01-08T00:31:10;99656.00;;;9.10
64960;BMP180;51487;52.266;10.542;2023-01-08T00:33:37;99655.00;;;9.10
64960;BMP180;51487;52.266;10.542;2023-01-08T00:36:08;99644.00;;;9.10
64960;BMP180;51487;52.266;10.542;2023-01-08T00:38:36;99643.00;;;9.20
64960;BMP180;51487;52.266;10.542;2023-01-08T00:41:01;99646.00;;;9.20
64960;BMP180;51487;52.266;10.542;2023-01-08T00:43:27;99656.00;;;9.30
64960;BMP180;51487;52.266;10.542;2023-01-08T00:45:52;99645.00;;;9.30
64960;BMP180;51487;52.266;10.542;2023-01-08T00:48:19;99646.00;;;9.30
64960;BMP180;51487;52.266;10.542;2023-01-08T00:50:49;99630.00;;;9.30
64960;BMP180;51487;52.266;10.542;2023-01-08T00:53:16;99633.00;;;9.40
64960;BMP180;51487;52.266;10.542;2023-01-08T00:55:43;99625.00;;;9.40
64960;BMP180;51487;52.266;10.542;2023-01-08T00:58:09;99627.00;;;9.40
64960;BMP180;51487;52.266;10.542;2023-01-08T01:00:35;99619.00;;;9.40
64960;BMP180;51487;52.266;10.542;2023-01-08T01:03:01;99631.00;;;9.40
64960;BMP180;51487;52.266;10.542;2023-01-08T01:05:26;99638.00;;;9.30
64960;BMP180;51487;52.266;10.542;2023-01-08T01:07:52;99635.00;;;9.40
64960;BMP180;51487;52.266;10.542;2023-01-08T01:10:18;99641.00;;;9.40
64960;BMP180;51487;52.266;10.542;2023-01-08T01:12:44;99644.00;;;9.40
64960;BMP180;51487;52.266;10.542;2023-01-08T01:15:12;99642.00;;;9.40
64960;BMP180;51487;52.266;10.542;2023-01-08T01:17:41;99641.00;;;9.40
64960;BMP180;51487;52.266;10.542;2023-01-08T01:20:10;99647.00;;;9.40
64960;BMP180;51487;52.266;10.542;2023-01-08T01:22:38;99647.00;;;9.30
64960;BMP180;51487;52.266;10.542;2023-01-08T01:25:04;99637.00;;;9.30
64960;BMP180;51487;52.266;10.542;2023-01-08T01:27:31;99617.00;;;9.30
64960;BMP180;51487;52.266;10.542;2023-01-08T01:29:56;99610.00;;;9.20
64960;BMP180;51487;52.266;10.542;2023-01-08T01:32:22;99614.00;;;9.30
64960;BMP180;51487;52.266;10.542;2023-01-08T01:34:48;99615.00;;;9.20
64960;BMP180;51487;52.266;10.542;2023-01-08T01:37:13;99633.00;;;9.20
64960;BMP180;51487;52.266;10.542;2023-01-08T01:39:40;99622.00;;;9.20
64960;BMP180;51487;52.266;10.542;2023-01-08T01:42:17;99627.00;;;9.20
64960;BMP180;51487;52.266;10.542;2023-01-08T01:47:56;99616.00;;;9.20
64960;BMP180;51487;52.266;10.542;2023-01-08T01:50:39;99627.00;;;9.20
64960;BMP180;51487;52.266;10.542;2023-01-08T01:53:20;99621.00;;;9.30
64960;BMP180;51487;52.266;10.542;2023-01-08T01:55:59;99618.00;;;9.30
64960;BMP180;51487;52.266;10.542;2023-01-08T01:58:29;99611.00;;;9.30
64960;BMP180;51487;52.266;10.542;2023-01-08T02:00:57;99611.00;;;9.30
64960;BMP180;51487;52.266;10.542;2023-01-08T02:03:29;99601.00;;;9.40
64960;BMP180;51487;52.266;10.542;2023-01-08T02:11:13;99596.00;;;9.40
64960;BMP180;51487;52.266;10.542;2023-01-08T02:13:50;99580.00;;;9.40
64960;BMP180;51487;52.266;10.542;2023-01-08T02:16:46;99584.00;;;9.40
64960;BMP180;51487;52.266;10.542;2023-01-08T02:19:51;99563.00;;;9.30
64960;BMP180;51487;52.266;10.542;2023-01-08T02:28:29;99587.00;;;9.30
64960;BMP180;51487;52.266;10.542;2023-01-08T02:30:58;99575.00;;;9.30
64960;BMP180;51487;52.266;10.542;2023-01-08T02:33:26;99576.00;;;9.30
64960;BMP180;51487;52.266;10.542;2023-01-08T02:36:14;99578.00;;;9.40
64960;BMP180;51487;52.266;10.542;2023-01-08T02:39:20;99591.00;;;9.30
64960;BMP180;51487;52.266;10.542;2023-01-08T02:42:05;99589.00;;;9.40
64960;BMP180;51487;52.266;10.542;2023-01-08T02:53:16;99581.00;;;9.40
64960;BMP180;51487;52.266;10.542;2023-01-08T02:55:48;99579.00;;;9.40
64960;BMP180;51487;52.266;10.542;2023-01-08T02:58:22;99577.00;;;9.40
64960;BMP180;51487;52.266;10.542;2023-01-08T03:00:50;99566.00;;;9.40
64960;BMP180;51487;52.266;10.542;2023-01-08T03:03:18;99568.00;;;9.40
64960;BMP180;51487;52.266;10.542;2023-01-08T03:05:51;99576.00;;;9.40
64960;BMP180;51487;52.266;10.542;2023-01-08T03:08:23;99584.00;;;9.50
64960;BMP180;51487;52.266;10.542;2023-01-08T03:11:05;99583.00;;;9.50
64960;BMP180;51487;52.266;10.542;2023-01-08T03:13:40;99584.00;;;9.60
64960;BMP180;51487;52.266;10.542;2023-01-08T03:16:11;99581.00;;;9.60
64960;BMP180;51487;52.266;10.542;2023-01-08T03:18:45;99585.00;;;9.50
64960;BMP180;51487;52.266;10.542;2023-01-08T03:21:16;99581.00;;;9.50
64960;BMP180;51487;52.266;10.542;2023-01-08T03:23:44;99587.00;;;9.50
64960;BMP180;51487;52.266;10.542;2023-01-08T03:26:14;99582.00;;;9.50
64960;BMP180;51487;52.266;10.542;2023-01-08T03:28:49;99574.00;;;9.50
64960;BMP180;51487;52.266;10.542;2023-01-08T03:31:18;99570.00;;;9.60
64960;BMP180;51487;52.266;10.542;2023-01-08T03:33:46;99571.00;;;9.60
64960;BMP180;51487;52.266;10.542;2023-01-08T03:36:19;99579.00;;;9.60
64960;BMP180;51487;52.266;10.542;2023-01-08T03:38:57;99581.00;;;9.60
64960;BMP180;51487;52.266;10.542;2023-01-08T03:41:27;99585.00;;;9.70
64960;BMP180;51487;52.266;10.542;2023-01-08T03:43:55;99582.00;;;9.70
64960;BMP180;51487;52.266;10.542;2023-01-08T03:46:32;99580.00;;;9.70
64960;BMP180;51487;52.266;10.542;2023-01-08T03:49:03;99583.00;;;9.80
64960;BMP180;51487;52.266;10.542;2023-01-08T03:51:41;99573.00;;;9.80
64960;BMP180;51487;52.266;10.542;2023-01-08T03:54:11;99577.00;;;9.70
64960;BMP180;51487;52.266;10.542;2023-01-08T03:56:39;99571.00;;;9.70
64960;BMP180;51487;52.266;10.542;2023-01-08T03:59:04;99566.00;;;9.80
64960;BMP180;51487;52.266;10.542;2023-01-08T04:01:30;99562.00;;;9.80
64960;BMP180;51487;52.266;10.542;2023-01-08T04:03:55;99564.00;;;9.90
64960;BMP180;51487;52.266;10.542;2023-01-08T04:06:20;99560.00;;;9.80
64960;BMP180;51487;52.266;10.542;2023-01-08T04:08:47;99553.00;;;9.90
64960;BMP180;51487;52.266;10.542;2023-01-08T04:11:13;99554.00;;;9.80
64960;BMP180;51487;52.266;10.542;2023-01-08T04:13:38;99544.00;;;9.80
64960;BMP180;51487;52.266;10.542;2023-01-08T04:16:04;99552.00;;;9.80
64960;BMP180;51487;52.266;10.542;2023-01-08T04:18:30;99545.00;;;9.80
64960;BMP180;51487;52.266;10.542;2023-01-08T04:20:56;99542.00;;;9.80
64960;BMP180;51487;52.266;10.542;2023-01-08T04:23:21;99538.00;;;9.80
64960;BMP180;51487;52.266;10.542;2023-01-08T04:25:47;99541.00;;;9.80
64960;BMP180;51487;52.266;10.542;2023-01-08T04:28:12;99534.00;;;9.80
64960;BMP180;51487;52.266;10.542;2023-01-08T04:30:38;99531.00;;;9.80
64960;BMP180;51487;52.266;10.542;2023-01-08T04:33:03;99521.00;;;9.70
64960;BMP180;51487;52.266;10.542;2023-01-08T04:35:29;99520.00;;;9.70
64960;BMP180;51487;52.266;10.542;2023-01-08T04:37:54;99514.00;;;9.60
64960;BMP180;51487;52.266;10.542;2023-01-08T04:40:20;99512.00;;;9.60
64960;BMP180;51487;52.266;10.542;2023-01-08T04:42:45;99509.00;;;9.60
64960;BMP180;51487;52.266;10.542;2023-01-08T04:45:11;99510.00;;;9.70
64960;BMP180;51487;52.266;10.542;2023-01-08T04:47:36;99509.00;;;9.60
64960;BMP180;51487;52.266;10.542;2023-01-08T04:50:02;99508.00;;;9.60
64960;BMP180;51487;52.266;10.542;2023-01-08T04:52:28;99493.00;;;9.50
64960;BMP180;51487;52.266;10.542;2023-01-08T04:54:53;99502.00;;;9.50
64960;BMP180;51487;52.266;10.542;2023-01-08T04:57:19;99501.00;;;9.60
64960;BMP180;51487;52.266;10.542;2023-01-08T04:59:44;99510.00;;;9.60
64960;BMP180;51487;52.266;10.542;2023-01-08T05:02:10;99495.00;;;9.60
64960;BMP180;51487;52.266;10.542;2023-01-08T05:04:35;99502.00;;;9.60
64960;BMP180;51487;52.266;10.542;2023-01-08T05:07:02;99504.00;;;9.60
64960;BMP180;51487;52.266;10.542;2023-01-08T05:09:28;99497.00;;;9.60
64960;BMP180;51487;52.266;10.542;2023-01-08T05:11:54;99484.00;;;9.60
64960;BMP180;51487;52.266;10.542;2023-01-08T05:14:19;99487.00;;;9.60
64960;BMP180;51487;52.266;10.542;2023-01-08T05:16:45;99486.00;;;9.60
64960;BMP180;51487;52.266;10.542;2023-01-08T05:19:11;99495.00;;;9.70
64960;BMP180;51487;52.266;10.542;2023-01-08T05:21:37;99478.00;;;9.60
64960;BMP180;51487;52.266;10.542;2023-01-08T05:24:03;99468.00;;;9.70
64960;BMP180;51487;52.266;10.542;2023-01-08T05:26:28;99477.00;;;9.70
64960;BMP180;51487;52.266;10.542;2023-01-08T05:28:54;99484.00;;;9.70
64960;BMP180;51487;52.266;10.542;2023-01-08T05:31:19;99474.00;;;9.70
64960;BMP180;51487;52.266;10.542;2023-01-08T05:33:45;99483.00;;;9.70
64960;BMP180;51487;52.266;10.542;2023-01-08T05:36:11;99478.00;;;9.70
64960;BMP180;51487;52.266;10.542;2023-01-08T05:38:38;99482.00;;;9.70
64960;BMP180;51487;52.266;10.542;2023-01-08T05:41:05;99470.00;;;9.70
64960;BMP180;51487;52.266;10.542;2023-01-08T05:43:31;99475.00;;;9.70
64960;BMP180;51487;52.266;10.542;2023-01-08T05:46:00;99476.00;;;9.80
64960;BMP180;51487;52.266;10.542;2023-01-08T05:48:28;99475.00;;;9.90
64960;BMP180;51487;52.266;10.542;2023-01-08T05:50:54;99480.00;;;9.90
64960;BMP180;51487;52.266;10.542;2023-01-08T05:53:20;99474.00;;;9.80
64960;BMP180;51487;52.266;10.542;2023-01-08T05:55:46;99477.00;;;9.90
64960;BMP180;51487;52.266;10.542;2023-01-08T05:58:11;99478.00;;;9.80
64960;BMP180;51487;52.266;10.542;2023-01-08T06:00:37;99478.00;;;9.90
64960;BMP180;51487;52.266;10.542;2023-01-08T06:03:03;99474.00;;;9.90
64960;BMP180;51487;52.266;10.542;2023-01-08T06:05:30;99469.00;;;9.90
64960;BMP180;51487;52.266;10.542;2023-01-08T06:07:57;99474.00;;;10.00
64960;BMP180;51487;52.266;10.542;2023-01-08T06:10:24;99477.00;;;9.90
64960;BMP180;51487;52.266;10.542;2023-01-08T06:12:50;99471.00;;;9.90
64960;BMP180;51487;52.266;10.542;2023-01-08T06:15:16;99468.00;;;9.90
64960;BMP180;51487;52.266;10.542;2023-01-08T06:17:42;99475.00;;;9.90
64960;BMP180;51487;52.266;10.542;2023-01-08T06:20:09;99473.00;;;9.90
64960;BMP180;51487;52.266;10.542;2023-01-08T06:22:35;99472.00;;;9.90
64960;BMP180;51487;52.266;10.542;2023-01-08T06:25:01;99471.00;;;10.00
64960;BMP180;51487;52.266;10.542;2023-01-08T06:27:28;99476.00;;;10.00
64960;BMP180;51487;52.266;10.542;2023-01-08T06:29:54;99471.00;;;9.90
64960;BMP180;51487;52.266;10.542;2023-01-08T06:32:19;99472.00;;;9.90
64960;BMP180;51487;52.266;10.542;2023-01-08T06:34:45;99472.00;;;9.90
64960;BMP180;51487;52.266;10.542;2023-01-08T06:37:10;99480.00;;;9.80
64960;BMP180;51487;52.266;10.542;2023-01-08T06:39:36;99472.00;;;9.80
64960;BMP180;51487;52.266;10.542;2023-01-08T06:42:01;99468.00;;;9.90
64960;BMP180;51487;52.266;10.542;2023-01-08T06:44:27;99477.00;;;9.90
64960;BMP180;51487;52.266;10.542;2023-01-08T06:46:52;99480.00;;;9.80
64960;BMP180;51487;52.266;10.542;2023-01-08T06:49:18;99468.00;;;9.80
64960;BMP180;51487;52.266;10.542;2023-01-08T06:51:44;99473.00;;;9.80
64960;BMP180;51487;52.266;10.542;2023-01-08T06:54:10;99480.00;;;9.70
64960;BMP180;51487;52.266;10.542;2023-01-08T06:56:35;99469.00;;;9.60
64960;BMP180;51487;52.266;10.542;2023-01-08T06:59:01;99468.00;;;9.60
64960;BMP180;51487;52.266;10.542;2023-01-08T07:01:26;99473.00;;;9.60
64960;BMP180;51487;52.266;10.542;2023-01-08T07:03:52;99465.00;;;9.50
64960;BMP180;51487;52.266;10.542;2023-01-08T07:06:19;99474.00;;;9.50
64960;BMP180;51487;52.266;10.542;2023-01-08T07:08:46;99478.00;;;9.50
64960;BMP180;51487;52.266;10.542;2023-01-08T07:11:12;99479.00;;;9.60
64960;BMP180;51487;52.266;10.542;2023-01-08T07:13:38;99480.00;;;9.50
64960;BMP180;51487;52.266;10.542;2023-01-08T07:16:05;99480.00;;;9.40
64960;BMP180;51487;52.266;10.542;2023-01-08T07:18:32;99489.00;;;9.40
64960;BMP180;51487;52.266;10.542;2023-01-08T07:20:58;99477.00;;;9.20
64960;BMP180;51487;52.266;10.542;2023-01-08T07:23:23;99478.00;;;9.30
64960;BMP180;51487;52.266;10.542;2023-01-08T07:25:49;99483.00;;;9.30
64960;BMP180;51487;52.266;10.542;2023-01-08T07:28:14;99483.00;;;9.30
64960;BMP180;51487;52.266;10.542;2023-01-08T07:30:40;99475.00;;;9.20
64960;BMP180;51487;52.266;10.542;2023-01-08T07:33:05;99479.00;;;9.20
64960;BMP180;51487;52.266;10.542;2023-01-08T07:35:31;99487.00;;;9.20
64960;BMP180;51487;52.266;10.542;2023-01-08T07:37:56;99492.00;;;9.20
64960;BMP180;51487;52.266;10.542;2023-01-08T07:40:22;99484.00;;;9.20
64960;BMP180;51487;52.266;10.542;2023-01-08T07:42:48;99493.00;;;9.20
64960;BMP180;51487;52.266;10.542;2023-01-08T07:45:21;99483.00;;;9.30
64960;BMP180;51487;52.266;10.542;2023-01-08T07:47:47;99490.00;;;9.20
64960;BMP180;51487;52.266;10.542;2023-01-08T07:50:12;99498.00;;;9.20
64960;BMP180;51487;52.266;10.542;2023-01-08T07:52:38;99493.00;;;9.10
64960;BMP180;51487;52.266;10.542;2023-01-08T07:55:04;99487.00;;;9.20
64960;BMP180;51487;52.266;10.542;2023-01-08T07:57:29;99492.00;;;9.20
64960;BMP180;51487;52.266;10.542;2023-01-08T07:59:55;99498.00;;;9.20
64960;BMP180;51487;52.266;10.542;2023-01-08T08:02:20;99499.00;;;9.20
64960;BMP180;51487;52.266;10.542;2023-01-08T08:04:46;99502.00;;;9.20
64960;BMP180;51487;52.266;10.542;2023-01-08T08:07:11;99494.00;;;9.10
64960;BMP180;51487;52.266;10.542;2023-01-08T08:09:36;99493.00;;;9.00
64960;BMP180;51487;52.266;10.542;2023-01-08T08:12:02;99490.00;;;9.10
64960;BMP180;51487;52.266;10.542;2023-01-08T08:14:28;99494.00;;;9.10
64960;BMP180;51487;52.266;10.542;2023-01-08T08:16:53;99488.00;;;9.00
64960;BMP180;51487;52.266;10.542;2023-01-08T08:19:19;99493.00;;;9.00
64960;BMP180;51487;52.266;10.542;2023-01-08T08:21:45;99489.00;;;9.00
64960;BMP180;51487;52.266;10.542;2023-01-08T08:24:10;99486.00;;;9.00
64960;BMP180;51487;52.266;10.542;2023-01-08T08:26:36;99485.00;;;8.90
64960;BMP180;51487;52.266;10.542;2023-01-08T08:29:01;99490.00;;;8.90
64960;BMP180;51487;52.266;10.542;2023-01-08T08:31:27;99484.00;;;9.00
64960;BMP180;51487;52.266;10.542;2023-01-08T08:33:53;99503.00;;;9.00
64960;BMP180;51487;52.266;10.542;2023-01-08T08:36:18;99491.00;;;9.00
64960;BMP180;51487;52.266;10.542;2023-01-08T08:38:44;99494.00;;;9.00
64960;BMP180;51487;52.266;10.542;2023-01-08T08:41:09;99485.00;;;9.00
64960;BMP180;51487;52.266;10.542;2023-01-08T08:43:35;99482.00;;;9.00
64960;BMP180;51487;52.266;10.542;2023-01-08T08:46:01;99490.00;;;9.00
64960;BMP180;51487;52.266;10.542;2023-01-08T08:48:26;99489.00;;;9.00
64960;BMP180;51487;52.266;10.542;2023-01-08T08:50:52;99480.00;;;9.00
64960;BMP180;51487;52.266;10.542;2023-01-08T08:53:17;99480.00;;;9.10
64960;BMP180;51487;52.266;10.542;2023-01-08T08:55:43;99478.00;;;9.20
64960;BMP180;51487;52.266;10.542;2023-01-08T08:58:10;99467.00;;;9.10
64960;BMP180;51487;52.266;10.542;2023-01-08T09:00:41;99469.00;;;9.10
64960;BMP180;51487;52.266;10.542;2023-01-08T09:03:14;99477.00;;;9.20
64960;BMP180;51487;52.266;10.542;2023-01-08T09:05:40;99474.00;;;9.20
64960;BMP180;51487;52.266;10.542;2023-01-08T09:08:10;99472.00;;;9.20
64960;BMP180;51487;52.266;10.542;2023-01-08T09:10:37;99469.00;;;9.20
64960;BMP180;51487;52.266;10.542;2023-01-08T09:13:06;99457.00;;;9.20
64960;BMP180;51487;52.266;10.542;2023-01-08T09:15:32;99459.00;;;9.20
64960;BMP180;51487;52.266;10.542;2023-01-08T09:17:57;99450.00;;;9.20
64960;BMP180;51487;52.266;10.542;2023-01-08T09:20:24;99446.00;;;9.20
64960;BMP180;51487;52.266;10.542;2023-01-08T09:22:50;99455.00;;;9.10
64960;BMP180;51487;52.266;10.542;2023-01-08T09:25:16;99451.00;;;9.10
64960;BMP180;51487;52.266;10.542;2023-01-08T09:27:42;99433.00;;;9.20
64960;BMP180;51487;52.266;10.542;2023-01-08T09:30:09;99444.00;;;9.10
64960;BMP180;51487;52.266;10.542;2023-01-08T09:32:35;99448.00;;;9.30
64960;BMP180;51487;52.266;10.542;2023-01-08T09:35:02;99453.00;;;9.40
64960;BMP180;51487;52.266;10.542;2023-01-08T09:37:29;99456.00;;;9.40
64960;BMP180;51487;52.266;10.542;2023-01-08T09:39:54;99458.00;;;9.60
64960;BMP180;51487;52.266;10.542;2023-01-08T09:42:22;99459.00;;;9.60
64960;BMP180;51487;52.266;10.542;2023-01-08T09:44:53;99453.00;;;9.50
64960;BMP180;51487;52.266;10.542;2023-01-08T09:47:28;99448.00;;;9.50
64960;BMP180;51487;52.266;10.542;2023-01-08T09:50:05;99455.00;;;9.60
64960;BMP180;51487;52.266;10.542;2023-01-08T09:52:35;99445.00;;;9.70
64960;BMP180;51487;52.266;10.542;2023-01-08T09:55:09;99441.00;;;9.60
64960;BMP180;51487;52.266;10.542;2023-01-08T09:57:38;99441.00;;;9.60
64960;BMP180;51487;52.266;10.542;2023-01-08T10:00:04;99442.00;;;9.60
64960;BMP180;51487;52.266;10.542;2023-01-08T10:02:54;99446.00;;;9.50
64960;BMP180;51487;52.266;10.542;2023-01-08T10:05:22;99444.00;;;9.50
64960;BMP180;51487;52.266;10.542;2023-01-08T10:07:50;99443.00;;;9.50
64960;BMP180;51487;52.266;10.542;2023-01-08T10:10:25;99441.00;;;9.60
64960;BMP180;51487;52.266;10.542;2023-01-08T10:12:53;99442.00;;;9.60
64960;BMP180;51487;52.266;10.542;2023-01-08T10:15:21;99434.00;;;9.50
64960;BMP180;51487;52.266;10.542;2023-01-08T10:18:08;99428.00;;;9.50
64960;BMP180;51487;52.266;10.542;2023-01-08T10:20:36;99416.00;;;9.60
64960;BMP180;51487;52.266;10.542;2023-01-08T10:23:13;99405.00;;;9.50
64960;BMP180;51487;52.266;10.542;2023-01-08T10:25:55;99392.00;;;9.60
64960;BMP180;51487;52.266;10.542;2023-01-08T10:28:30;99402.00;;;9.60
64960;BMP180;51487;52.266;10.542;2023-01-08T10:31:14;99410.00;;;9.80
64960;BMP180;51487;52.266;10.542;2023-01-08T10:36:14;99411.00;;;9.90
64960;BMP180;51487;52.266;10.542;2023-01-08T10:38:56;99410.00;;;9.80
64960;BMP180;51487;52.266;10.542;2023-01-08T10:41:25;99416.00;;;9.80
64960;BMP180;51487;52.266;10.542;2023-01-08T10:43:57;99421.00;;;9.70
64960;BMP180;51487;52.266;10.542;2023-01-08T10:46:35;99422.00;;;9.70
64960;BMP180;51487;52.266;10.542;2023-01-08T10:51:56;99422.00;;;9.80
64960;BMP180;51487;52.266;10.542;2023-01-08T10:54:33;99426.00;;;9.80
64960;BMP180;51487;52.266;10.542;2023-01-08T10:57:01;99418.00;;;9.80
64960;BMP180;51487;52.266;10.542;2023-01-08T10:59:27;99405.00;;;9.80
64960;BMP180;51487;52.266;10.542;2023-01-08T11:01:55;99404.00;;;9.70
64960;BMP180;51487;52.266;10.542;2023-01-08T11:04:29;99401.00;;;9.70
64960;BMP180;51487;52.266;10.542;2023-01-08T11:06:59;99405.00;;;9.60
64960;BMP180;51487;52.266;10.542;2023-01-08T11:09:30;99394.00;;;9.70
64960;BMP180;51487;52.266;10.542;2023-01-08T11:11:58;99394.00;;;9.70
64960;BMP180;51487;52.266;10.542;2023-01-08T11:16:59;99392.00;;;9.70
64960;BMP180;51487;52.266;10.542;2023-01-08T11:19:32;99388.00;;;9.70
64960;BMP180;51487;52.266;10.542;2023-01-08T11:22:17;99387.00;;;9.60
64960;BMP180;51487;52.266;10.542;2023-01-08T11:24:47;99389.00;;;9.70
64960;BMP180;51487;52.266;10.542;2023-01-08T11:27:32;99384.00;;;9.80
64960;BMP180;51487;52.266;10.542;2023-01-08T11:32:46;99379.00;;;9.90
64960;BMP180;51487;52.266;10.542;2023-01-08T11:35:26;99362.00;;;9.80
64960;BMP180;51487;52.266;10.542;2023-01-08T11:38:05;99359.00;;;9.90
64960;BMP180;51487;52.266;10.542;2023-01-08T11:40:57;99341.00;;;10.00
64960;BMP180;51487;52.266;10.542;2023-01-08T11:46:41;99336.00;;;10.20
64960;BMP180;51487;52.266;10.542;2023-01-08T11:52:28;99321.00;;;10.20
64960;BMP180;51487;52.266;10.542;2023-01-08T11:55:22;99311.00;;;10.20
64960;BMP180;51487;52.266;10.542;2023-01-08T12:15:11;99277.00;;;10.10
64960;BMP180;51487;52.266;10.542;2023-01-08T12:20:53;99272.00;;;10.00
64960;BMP180;51487;52.266;10.542;2023-01-08T12:26:29;99268.00;;;9.90
64960;BMP180;51487;52.266;10.542;2023-01-08T12:29:40;99268.00;;;10.00
64960;BMP180;51487;52.266;10.542;2023-01-08T12:32:53;99270.00;;;9.90
64960;BMP180;51487;52.266;10.542;2023-01-08T12:35:27;99270.00;;;9.80
64960;BMP180;51487;52.266;10.542;2023-01-08T12:38:07;99258.00;;;9.80
64960;BMP180;51487;52.266;10.542;2023-01-08T12:40:50;99263.00;;;9.90
64960;BMP180;51487;52.266;10.542;2023-01-08T12:43:24;99255.00;;;9.90
64960;BMP180;51487;52.266;10.542;2023-01-08T12:45:58;99260.00;;;9.90
64960;BMP180;51487;52.266;10.542;2023-01-08T12:48:33;99264.00;;;9.90
64960;BMP180;51487;52.266;10.542;2023-01-08T12:51:03;99265.00;;;10.00
64960;BMP180;51487;52.266;10.542;2023-01-08T13:02:16;99250.00;;;9.90
64960;BMP180;51487;52.266;10.542;2023-01-08T13:04:45;99248.00;;;10.00
64960;BMP180;51487;52.266;10.542;2023-01-08T13:07:18;99240.00;;;10.00
64960;BMP180;51487;52.266;10.542;2023-01-08T13:09:45;99239.00;;;10.00
64960;BMP180;51487;52.266;10.542;2023-01-08T13:12:27;99243.00;;;10.10
64960;BMP180;51487;52.266;10.542;2023-01-08T13:15:00;99237.00;;;10.20
64960;BMP180;51487;52.266;10.542;2023-01-08T13:17:27;99229.00;;;10.30
64960;BMP180;51487;52.266;10.542;2023-01-08T13:19:55;99231.00;;;10.40
64960;BMP180;51487;52.266;10.542;2023-01-08T13:22:28;99223.00;;;10.50
64960;BMP180;51487;52.266;10.542;2023-01-08T13:25:50;99229.00;;;10.50
64960;BMP180;51487;52.266;10.542;2023-01-08T13:33:51;99216.00;;;10.50
64960;BMP180;51487;52.266;10.542;2023-01-08T13:38:45;99208.00;;;10.60
64960;BMP180;51487;52.266;10.542;2023-01-08T13:41:28;99214.00;;;10.50
64960;BMP180;51487;52.266;10.542;2023-01-08T13:44:01;99212.00;;;10.50
64960;BMP180;51487;52.266;10.542;2023-01-08T13:46:30;99212.00;;;10.40
64960;BMP180;51487;52.266;10.542;2023-01-08T13:49:02;99208.00;;;10.50
64960;BMP180;51487;52.266;10.542;2023-01-08T13:54:17;99204.00;;;10.20
64960;BMP180;51487;52.266;10.542;2023-01-08T13:56:50;99196.00;;;10.10
64960;BMP180;51487;52.266;10.542;2023-01-08T13:59:30;99196.00;;;10.00
64960;BMP180;51487;52.266;10.542;2023-01-08T14:02:00;99188.00;;;9.90
64960;BMP180;51487;52.266;10.542;2023-01-08T14:04:26;99190.00;;;9.90
64960;BMP180;51487;52.266;10.542;2023-01-08T14:06:52;99198.00;;;9.80
64960;BMP180;51487;52.266;10.542;2023-01-08T14:09:22;99195.00;;;9.70
64960;BMP180;51487;52.266;10.542;2023-01-08T14:11:52;99193.00;;;9.70
64960;BMP180;51487;52.266;10.542;2023-01-08T14:14:22;99189.00;;;9.70
64960;BMP180;51487;52.266;10.542;2023-01-08T14:16:50;99195.00;;;9.60
64960;BMP180;51487;52.266;10.542;2023-01-08T14:19:19;99191.00;;;9.50
64960;BMP180;51487;52.266;10.542;2023-01-08T14:21:52;99191.00;;;9.50
64960;BMP180;51487;52.266;10.542;2023-01-08T14:24:22;99194.00;;;9.50
64960;BMP180;51487;52.266;10.542;2023-01-08T14:26:58;99206.00;;;9.70
64960;BMP180;51487;52.266;10.542;2023-01-08T14:29:27;99193.00;;;9.70
64960;BMP180;51487;52.266;10.542;2023-01-08T14:31:56;99197.00;;;9.80
64960;BMP180;51487;52.266;10.542;2023-01-08T14:34:25;99195.00;;;9.70
64960;BMP180;51487;52.266;10.542;2023-01-08T14:36:54;99203.00;;;9.60
64960;BMP180;51487;52.266;10.542;2023-01-08T14:39:31;99198.00;;;9.50
64960;BMP180;51487;52.266;10.542;2023-01-08T14:42:05;99200.00;;;9.50
64960;BMP180;51487;52.266;10.542;2023-01-08T14:45:00;99202.00;;;9.40
64960;BMP180;51487;52.266;10.542;2023-01-08T14:47:41;99209.00;;;9.30
64960;BMP180;51487;52.266;10.542;2023-01-08T14:53:43;99201.00;;;9.10
64960;BMP180;51487;52.266;10.542;2023-01-08T14:55:50;99198.00;;;9.10
64960;BMP180;51487;52.266;10.542;2023-01-08T14:58:24;99200.00;;;9.00
64960;BMP180;51487;52.266;10.542;2023-01-08T15:01:00;99209.00;;;9.00
64960;BMP180;51487;52.266;10.542;2023-01-08T15:03:37;99200.00;;;9.00
64960;BMP180;51487;52.266;10.542;2023-01-08T15:06:07;99209.00;;;9.00
64960;BMP180;51487;52.266;10.542;2023-01-08T15:08:43;99196.00;;;9.10
64960;BMP180;51487;52.266;10.542;2023-01-08T15:13:47;99195.00;;;9.20
64960;BMP180;51487;52.266;10.542;2023-01-08T15:16:19;99190.00;;;9.20
64960;BMP180;51487;52.266;10.542;2023-01-08T15:19:06;99175.00;;;9.20
64960;BMP180;51487;52.266;10.542;2023-01-08T15:21:47;99175.00;;;9.30
64960;BMP180;51487;52.266;10.542;2023-01-08T15:26:50;99176.00;;;9.40
64960;BMP180;51487;52.266;10.542;2023-01-08T15:29:19;99169.00;;;9.40
64960;BMP180;51487;52.266;10.542;2023-01-08T15:31:48;99169.00;;;9.40
64960;BMP180;51487;52.266;10.542;2023-01-08T15:34:17;99164.00;;;9.40
64960;BMP180;51487;52.266;10.542;2023-01-08T15:36:45;99163.00;;;9.40
64960;BMP180;51487;52.266;10.542;2023-01-08T15:39:11;99168.00;;;9.40
64960;BMP180;51487;52.266;10.542;2023-01-08T15:41:38;99164.00;;;9.40
64960;BMP180;51487;52.266;10.542;2023-01-08T15:44:24;99163.00;;;9.30
64960;BMP180;51487;52.266;10.542;2023-01-08T15:46:50;99158.00;;;9.20
64960;BMP180;51487;52.266;10.542;2023-01-08T15:49:16;99168.00;;;9.10
64960;BMP180;51487;52.266;10.542;2023-01-08T15:51:49;99172.00;;;9.00
64960;BMP180;51487;52.266;10.542;2023-01-08T15:54:24;99161.00;;;8.90
64960;BMP180;51487;52.266;10.542;2023-01-08T15:56:50;99166.00;;;8.80